createdAt,value
2023-04-23T00:00:58.665Z,74.00
2023-04-23T00:03:10.709Z,74.24
2023-04-23T00:05:16.630Z,74.33
2023-04-23T00:07:22.133Z,74.46
2023-04-23T00:09:27.157Z,74.77
2023-04-23T00:11:31.067Z,74.93
2023-04-23T00:13:34.612Z,74.86
2023-04-23T00:15:38.922Z,74.92
2023-04-23T00:17:42.281Z,75.29
2023-04-23T00:19:46.164Z,75.24
2023-04-23T00:21:51.504Z,75.52
2023-04-23T00:23:58.142Z,75.84
2023-04-23T00:26:01.621Z,76.03
2023-04-23T00:28:05.547Z,76.23
2023-04-23T00:30:10.051Z,76.53
2023-04-23T00:32:14.675Z,76.56
2023-04-23T00:34:18.085Z,76.96
2023-04-23T00:36:21.522Z,77.09
2023-04-23T00:38:27.517Z,77.47
2023-04-23T00:40:31.039Z,77.34
2023-04-23T00:42:34.681Z,77.71
2023-04-23T00:44:38.607Z,78.17
2023-04-23T00:46:43.816Z,78.26
2023-04-23T00:48:47.487Z,78.25
2023-04-23T00:50:51.255Z,78.73
2023-04-23T00:52:54.745Z,78.83
2023-04-23T00:54:59.606Z,78.97
2023-04-23T00:57:03.830Z,79.02
2023-04-23T00:59:07.291Z,79.22
2023-04-23T01:01:12.514Z,79.55
2023-04-23T01:03:16.749Z,79.50
2023-04-23T01:05:23.320Z,80.01
2023-04-23T01:07:27.752Z,79.91
2023-04-23T01:09:32.590Z,79.78
2023-04-23T01:11:39.157Z,80.23
2023-04-23T01:13:43.272Z,80.19
2023-04-23T01:15:46.822Z,80.42
2023-04-23T01:17:50.403Z,80.69
2023-04-23T01:19:54.039Z,80.62
2023-04-23T01:22:01.197Z,80.89
2023-04-23T01:24:07.091Z,80.79
2023-04-23T01:26:11.003Z,80.95
2023-04-23T01:28:14.808Z,81.04
2023-04-23T01:30:18.468Z,81.03
2023-04-23T01:32:22.923Z,81.48
2023-04-23T01:34:26.327Z,81.72
2023-04-23T01:36:29.890Z,81.68
2023-04-23T01:38:35.426Z,81.79
2023-04-23T01:40:40.257Z,82.14
2023-04-23T01:42:43.778Z,81.55
2023-04-23T01:44:47.448Z,81.94
2023-04-23T01:46:50.865Z,81.51
2023-04-23T01:48:54.488Z,78.57
2023-04-23T01:50:58.301Z,77.59
2023-04-23T01:53:01.822Z,76.52
2023-04-23T01:55:05.850Z,75.89
2023-04-23T01:57:11.085Z,75.90
2023-04-23T01:59:14.635Z,75.96
2023-04-23T02:01:18.173Z,76.40
2023-04-23T02:03:21.908Z,76.93
2023-04-23T02:05:29.830Z,77.61
2023-04-23T02:07:33.625Z,78.24
2023-04-23T02:09:37.061Z,78.84
2023-04-23T02:11:41.917Z,79.22
2023-04-23T02:13:46.655Z,79.66
2023-04-23T02:15:50.261Z,79.82
2023-04-23T02:17:54.154Z,80.08
2023-04-23T02:19:57.625Z,80.42
2023-04-23T02:22:01.833Z,80.69
2023-04-23T02:24:06.232Z,80.98
2023-04-23T02:26:09.666Z,81.28
2023-04-23T02:28:13.595Z,81.52
2023-04-23T02:30:19.247Z,81.56
2023-04-23T02:32:22.816Z,81.54
2023-04-23T02:34:26.222Z,81.67
2023-04-23T02:36:31.196Z,81.82
2023-04-23T02:38:34.625Z,81.89
2023-04-23T02:40:38.131Z,81.99
2023-04-23T02:42:43.838Z,82.19
2023-04-23T02:44:47.444Z,82.20
2023-04-23T02:46:52.478Z,82.82
2023-04-23T02:48:56.045Z,82.55
2023-04-23T02:50:59.485Z,82.68
2023-04-23T02:53:02.995Z,82.90
2023-04-23T02:55:07.373Z,83.08
2023-04-23T02:57:12.858Z,83.33
2023-04-23T02:59:16.376Z,83.50
2023-04-23T03:01:20.320Z,83.57
2023-04-23T03:03:26.847Z,83.42
2023-04-23T03:05:30.532Z,83.40
2023-04-23T03:07:34.128Z,83.32
2023-04-23T03:09:37.829Z,82.92
2023-04-23T03:11:41.200Z,82.88
2023-04-23T03:13:45.781Z,82.95
2023-04-23T03:15:50.360Z,83.17
2023-04-23T03:17:54.575Z,82.93
2023-04-23T03:19:59.465Z,82.96
2023-04-23T03:22:05.765Z,83.21
2023-04-23T03:24:09.431Z,83.12
2023-04-23T03:26:12.835Z,83.30
2023-04-23T03:28:16.390Z,83.48
2023-04-23T03:30:21.672Z,83.63
2023-04-23T03:32:25.814Z,83.76
2023-04-23T03:34:29.303Z,84.00
2023-04-23T03:36:34.118Z,83.95
2023-04-23T03:38:38.093Z,84.00
2023-04-23T03:40:41.704Z,83.87
2023-04-23T03:42:46.482Z,83.87
2023-04-23T03:44:51.475Z,84.01
2023-04-23T03:46:54.918Z,84.01
2023-04-23T03:48:58.318Z,84.06
2023-04-23T03:51:03.797Z,84.00
2023-04-23T03:53:28.444Z,84.14
2023-04-23T03:56:10.183Z,84.23
2023-04-23T03:58:23.730Z,84.09
2023-04-23T04:00:28.797Z,84.20
2023-04-23T04:02:32.428Z,84.28
2023-04-23T04:04:36.839Z,84.55
2023-04-23T04:06:40.666Z,84.57
2023-04-23T04:08:45.511Z,84.40
2023-04-23T04:10:48.939Z,84.56
2023-04-23T04:12:52.497Z,84.29
2023-04-23T04:14:56.419Z,84.42
2023-04-23T04:17:00.218Z,84.37
2023-04-23T04:19:04.012Z,84.26
2023-04-23T04:21:07.585Z,84.25
2023-04-23T04:23:11.100Z,84.24
2023-04-23T04:25:16.009Z,84.25
2023-04-23T04:27:19.716Z,84.17
2023-04-23T04:29:24.047Z,84.29
2023-04-23T04:31:28.394Z,84.29
2023-04-23T04:33:33.046Z,84.28
2023-04-23T04:35:37.054Z,84.39
2023-04-23T04:37:40.802Z,84.35
2023-04-23T04:39:44.214Z,84.47
2023-04-23T04:41:49.343Z,84.63
2023-04-23T04:43:53.022Z,84.49
2023-04-23T04:45:59.148Z,84.59
2023-04-23T04:48:02.629Z,84.60
2023-04-23T04:50:06.969Z,84.50
2023-04-23T04:52:10.414Z,84.44
2023-04-23T04:54:13.885Z,84.61
2023-04-23T04:56:17.348Z,84.44
2023-04-23T04:58:22.298Z,84.49
2023-04-23T05:00:29.534Z,84.47
2023-04-23T05:02:33.192Z,84.44
2023-04-23T05:04:36.715Z,84.59
2023-04-23T05:06:40.289Z,84.46
2023-04-23T05:08:48.165Z,84.28
2023-04-23T05:10:51.968Z,84.22
2023-04-23T05:12:55.451Z,84.34
2023-04-23T05:15:00.305Z,84.10
2023-04-23T05:17:03.870Z,84.09
2023-04-23T05:19:08.348Z,83.96
2023-04-23T05:21:11.798Z,84.05
2023-04-23T05:23:15.231Z,83.92
2023-04-23T05:25:18.668Z,83.81
2023-04-23T05:27:22.123Z,83.72
2023-04-23T05:29:25.761Z,83.58
2023-04-23T05:31:30.664Z,83.74
2023-04-23T05:33:42.889Z,83.65
2023-04-23T05:35:53.249Z,83.54
2023-04-23T05:37:56.905Z,83.52
2023-04-23T05:40:00.468Z,83.48
2023-04-23T05:42:04.481Z,83.19
2023-04-23T05:44:07.988Z,82.92
2023-04-23T05:46:11.426Z,82.69
2023-04-23T05:48:16.250Z,82.79
2023-04-23T05:50:19.961Z,82.64
2023-04-23T05:52:23.313Z,82.62
2023-04-23T05:54:26.799Z,82.37
2023-04-23T05:56:30.276Z,82.49
2023-04-23T05:58:33.689Z,82.26
2023-04-23T06:00:37.635Z,81.89
2023-04-23T06:02:41.882Z,81.72
2023-04-23T06:04:47.104Z,81.59
2023-04-23T06:06:51.346Z,81.64
2023-04-23T06:08:54.819Z,81.47
2023-04-23T06:10:58.275Z,81.53
2023-04-23T06:13:01.687Z,81.54
2023-04-23T06:15:06.162Z,81.68
2023-04-23T06:17:09.575Z,81.33
2023-04-23T06:19:13.020Z,81.03
2023-04-23T06:21:18.686Z,80.80
2023-04-23T06:23:23.140Z,80.48
2023-04-23T06:25:26.553Z,80.32
2023-04-23T06:27:30.031Z,80.39
2023-04-23T06:29:38.532Z,80.28
2023-04-23T06:31:43.103Z,79.88
2023-04-23T06:33:47.241Z,79.70
2023-04-23T06:35:50.950Z,79.46
2023-04-23T06:37:56.355Z,78.94
2023-04-23T06:40:00.888Z,78.63
2023-04-23T06:42:04.341Z,77.95
2023-04-23T06:44:20.331Z,77.29
2023-04-23T06:46:30.052Z,76.47
2023-04-23T06:48:33.760Z,75.96
2023-04-23T06:50:37.402Z,75.43
2023-04-23T06:52:40.787Z,75.17
2023-04-23T06:54:45.568Z,74.99
2023-04-23T06:56:48.948Z,74.72
2023-04-23T06:58:52.451Z,73.91
2023-04-23T07:01:00.111Z,73.53
2023-04-23T07:03:05.720Z,72.97
2023-04-23T07:05:10.470Z,73.06
2023-04-23T07:07:13.906Z,72.90
2023-04-23T07:09:17.477Z,72.77
2023-04-23T07:11:23.547Z,72.18
2023-04-23T07:13:27.388Z,71.84
2023-04-23T07:15:31.850Z,71.50
2023-04-23T07:17:36.101Z,71.74
2023-04-23T07:19:39.712Z,71.54
2023-04-23T07:21:43.153Z,71.31
2023-04-23T07:23:46.688Z,70.95
2023-04-23T07:25:50.363Z,70.49
2023-04-23T07:27:55.359Z,70.27
2023-04-23T07:29:59.343Z,70.51
2023-04-23T07:32:02.962Z,70.82
2023-04-23T07:34:07.505Z,70.71
2023-04-23T07:36:10.905Z,71.02
2023-04-23T07:38:14.276Z,70.79
2023-04-23T07:40:17.721Z,70.54
2023-04-23T07:42:21.199Z,70.21
2023-04-23T07:44:26.214Z,69.80
2023-04-23T07:46:30.102Z,69.95
2023-04-23T07:48:34.637Z,69.62
2023-04-23T07:50:38.066Z,69.53
2023-04-23T07:52:41.566Z,68.74
2023-04-23T07:54:45.006Z,68.79
2023-04-23T07:56:48.457Z,68.27
2023-04-23T07:58:58.281Z,67.42
2023-04-23T08:01:03.401Z,66.61
2023-04-23T08:03:06.923Z,66.59
2023-04-23T08:05:11.149Z,66.24
2023-04-23T08:07:14.739Z,66.42
2023-04-23T08:09:18.200Z,66.45
2023-04-23T08:11:21.737Z,66.13
2023-04-23T08:13:25.313Z,65.86
2023-04-23T08:15:28.785Z,65.98
2023-04-23T08:17:33.665Z,65.66
2023-04-23T08:19:37.111Z,65.70
2023-04-23T08:21:40.688Z,65.91
2023-04-23T08:23:44.060Z,65.67
2023-04-23T08:25:47.430Z,65.51
2023-04-23T08:27:51.153Z,65.38
2023-04-23T08:29:54.553Z,65.22
2023-04-23T08:31:58.036Z,65.26
2023-04-23T08:34:02.963Z,65.09
2023-04-23T08:36:06.745Z,64.92
2023-04-23T08:38:10.230Z,64.49
2023-04-23T08:40:14.272Z,64.16
2023-04-23T08:42:28.268Z,63.43
2023-04-23T08:44:33.618Z,63.47
2023-04-23T08:46:38.578Z,62.77
2023-04-23T08:48:42.722Z,62.67
2023-04-23T08:50:47.971Z,62.79
2023-04-23T08:52:55.015Z,62.58
2023-04-23T08:55:02.138Z,62.09
2023-04-23T08:57:07.335Z,61.70
2023-04-23T08:59:11.406Z,61.59
2023-04-23T09:01:15.671Z,61.64
2023-04-23T09:03:19.607Z,61.52
2023-04-23T09:05:23.046Z,60.95
2023-04-23T09:07:27.939Z,60.43
2023-04-23T09:09:31.720Z,60.15
2023-04-23T09:11:38.041Z,60.46
2023-04-23T09:13:42.228Z,59.81
2023-04-23T09:15:45.697Z,58.69
2023-04-23T09:17:49.996Z,57.65
2023-04-23T09:19:55.284Z,56.28
2023-04-23T09:22:01.144Z,56.08
2023-04-23T09:24:07.982Z,55.67
2023-04-23T09:26:11.454Z,55.20
2023-04-23T09:28:15.587Z,55.31
2023-04-23T09:30:20.310Z,55.60
2023-04-23T09:32:33.081Z,56.01
2023-04-23T09:34:37.678Z,56.06
2023-04-23T09:36:41.083Z,55.74
2023-04-23T09:38:44.542Z,56.16
2023-04-23T09:40:51.662Z,55.70
2023-04-23T09:42:55.164Z,54.71
2023-04-23T09:44:59.758Z,54.36
2023-04-23T09:47:12.076Z,54.55
2023-04-23T09:49:16.351Z,54.88
2023-04-23T09:51:19.804Z,55.37
2023-04-23T09:53:23.222Z,55.32
2023-04-23T09:55:35.404Z,55.26
2023-04-23T09:57:42.576Z,54.46
2023-04-23T09:59:50.020Z,54.36
2023-04-23T10:01:55.083Z,54.47
2023-04-23T10:03:59.252Z,54.65
2023-04-23T10:06:03.458Z,54.56
2023-04-23T10:08:09.050Z,55.33
2023-04-23T10:10:13.649Z,54.40
2023-04-23T10:12:36.669Z,54.65
2023-04-23T10:14:45.180Z,53.91
2023-04-23T10:16:49.403Z,54.02
2023-04-23T10:18:55.472Z,54.11
2023-04-23T10:20:59.337Z,53.78
2023-04-23T10:23:03.487Z,53.85
2023-04-23T10:25:12.192Z,53.39
2023-04-23T10:27:28.854Z,53.22
2023-04-23T10:29:43.573Z,53.11
2023-04-23T10:31:47.555Z,52.46
2023-04-23T10:33:58.318Z,52.64
2023-04-23T10:36:03.078Z,52.36
2023-04-23T10:38:06.863Z,52.25
2023-04-23T10:40:14.280Z,52.68
2023-04-23T10:42:19.240Z,52.46
2023-04-23T10:44:44.975Z,52.43
2023-04-23T10:46:56.496Z,51.79
2023-04-23T10:49:14.389Z,51.17
2023-04-23T10:52:02.584Z,50.85
2023-04-23T10:53:43.682Z,50.63
2023-04-23T10:55:48.505Z,50.69
2023-04-23T10:58:03.079Z,49.68
2023-04-23T11:00:09.745Z,50.06
2023-04-23T11:02:15.066Z,49.92
2023-04-23T11:04:23.716Z,50.19
2023-04-23T11:06:52.756Z,49.85
2023-04-23T11:08:57.666Z,49.47
2023-04-23T11:11:02.022Z,50.03
2023-04-23T11:13:25.184Z,48.95
2023-04-23T11:15:28.616Z,49.01
2023-04-23T11:18:06.987Z,48.67
2023-04-23T11:20:14.140Z,47.78
2023-04-23T11:22:20.104Z,47.07
2023-04-23T11:24:24.252Z,46.37
2023-04-23T11:26:31.970Z,46.07
2023-04-23T11:28:38.930Z,45.94
2023-04-23T11:30:42.389Z,45.57
2023-04-23T11:32:49.109Z,46.06
2023-04-23T11:34:54.603Z,46.04
2023-04-23T11:37:00.685Z,45.32
2023-04-23T11:39:04.252Z,45.45
2023-04-23T11:41:07.870Z,45.21
2023-04-23T11:43:11.289Z,44.88
2023-04-23T11:45:20.461Z,45.14
2023-04-23T11:47:28.278Z,44.85
2023-04-23T11:49:32.208Z,44.58
2023-04-23T11:51:42.084Z,44.10
2023-04-23T11:53:47.793Z,43.55
2023-04-23T11:55:51.160Z,43.80
2023-04-23T11:57:54.619Z,44.09
2023-04-23T11:59:57.960Z,43.77
2023-04-23T12:02:01.875Z,42.84
2023-04-23T12:04:11.560Z,43.36
2023-04-23T12:06:17.093Z,43.33
2023-04-23T12:08:22.862Z,42.54
2023-04-23T12:10:26.255Z,42.99
2023-04-23T12:12:35.324Z,42.47
2023-04-23T12:14:38.933Z,42.89
2023-04-23T12:16:44.049Z,42.12
2023-04-23T12:18:47.398Z,42.28
2023-04-23T12:20:51.298Z,42.54
2023-04-23T12:22:54.755Z,43.06
2023-04-23T12:25:01.507Z,43.95
2023-04-23T12:27:05.371Z,42.72
2023-04-23T12:29:09.297Z,42.40
2023-04-23T12:31:12.798Z,41.86
2023-04-23T12:33:16.324Z,41.47
2023-04-23T12:35:19.720Z,41.29
2023-04-23T12:37:26.100Z,41.72
2023-04-23T12:39:31.993Z,41.33
2023-04-23T12:41:36.829Z,41.44
2023-04-23T12:43:40.245Z,41.45
2023-04-23T12:45:45.314Z,41.24
2023-04-23T12:47:48.725Z,40.93
2023-04-23T12:49:53.729Z,40.99
2023-04-23T12:52:01.197Z,41.69
2023-04-23T12:54:04.908Z,40.93
2023-04-23T12:56:08.327Z,40.48
2023-04-23T12:58:13.300Z,40.39
2023-04-23T13:00:17.550Z,39.47
2023-04-23T13:02:21.161Z,38.97
2023-04-23T13:04:24.709Z,39.35
2023-04-23T13:06:29.355Z,38.80
2023-04-23T13:08:32.837Z,38.17
2023-04-23T13:10:40.981Z,38.31
2023-04-23T13:12:44.975Z,38.34
2023-04-23T13:14:49.928Z,37.00
2023-04-23T13:16:53.886Z,37.44
2023-04-23T13:18:57.439Z,37.07
2023-04-23T13:21:00.830Z,37.13
2023-04-23T13:23:04.242Z,36.25
2023-04-23T13:25:08.887Z,36.59
2023-04-23T13:27:12.282Z,36.86
2023-04-23T13:29:16.240Z,37.05
2023-04-23T13:31:21.292Z,37.09
2023-04-23T13:33:24.745Z,37.09
2023-04-23T13:35:28.386Z,37.37
2023-04-23T13:37:32.566Z,37.71
2023-04-23T13:39:36.427Z,38.60
2023-04-23T13:41:39.872Z,38.14
2023-04-23T13:43:43.412Z,37.27
2023-04-23T13:45:47.579Z,37.51
2023-04-23T13:47:52.484Z,35.83
2023-04-23T13:49:56.502Z,35.15
2023-04-23T13:52:04.415Z,35.04
2023-04-23T13:54:08.178Z,35.68
2023-04-23T13:56:11.927Z,35.38
2023-04-23T13:58:15.461Z,34.74
2023-04-23T14:00:19.389Z,34.33
2023-04-23T14:02:24.110Z,34.37
2023-04-23T14:04:29.047Z,33.98
2023-04-23T14:06:32.568Z,34.00
2023-04-23T14:08:36.860Z,33.49
2023-04-23T14:10:43.543Z,33.36
2023-04-23T14:12:47.427Z,33.90
2023-04-23T14:14:52.532Z,34.60
2023-04-23T14:16:55.958Z,35.34
2023-04-23T14:18:59.518Z,35.68
2023-04-23T14:21:04.358Z,35.87
2023-04-23T14:23:50.285Z,36.62
2023-04-23T14:26:00.789Z,36.81
2023-04-23T14:28:25.102Z,36.89
2023-04-23T14:30:29.800Z,37.23
2023-04-23T14:32:33.336Z,38.32
2023-04-23T14:34:36.941Z,40.37
2023-04-23T14:36:41.836Z,43.25
2023-04-23T14:38:45.278Z,45.09
2023-04-23T14:40:48.793Z,46.83
2023-04-23T14:42:53.652Z,48.57
2023-04-23T14:45:00.042Z,50.24
2023-04-23T14:47:03.836Z,52.22
2023-04-23T14:49:07.582Z,54.24
2023-04-23T14:51:10.995Z,56.12
2023-04-23T14:53:16.191Z,57.35
2023-04-23T14:55:19.721Z,57.99
2023-04-23T14:57:23.169Z,58.96
2023-04-23T14:59:26.592Z,59.34
2023-04-23T15:01:31.195Z,59.85
2023-04-23T15:03:35.058Z,59.85
2023-04-23T15:05:40.048Z,59.20
2023-04-23T15:07:43.794Z,58.67
2023-04-23T15:09:48.692Z,58.09
2023-04-23T15:11:52.820Z,59.25
2023-04-23T15:14:04.565Z,59.98
2023-04-23T15:16:29.052Z,60.18
2023-04-23T15:18:45.719Z,59.14
2023-04-23T15:20:49.104Z,59.53
2023-04-23T15:22:52.502Z,59.01
2023-04-23T15:24:57.322Z,58.92
2023-04-23T15:27:01.291Z,56.92
2023-04-23T15:29:06.146Z,56.62
2023-04-23T15:31:09.776Z,56.46
2023-04-23T15:33:13.180Z,54.66
2023-04-23T15:35:16.710Z,54.77
2023-04-23T15:37:21.190Z,53.44
2023-04-23T15:39:24.948Z,52.23
2023-04-23T15:41:30.080Z,52.01
2023-04-23T15:43:33.588Z,52.44
2023-04-23T15:45:36.953Z,52.91
2023-04-23T15:47:42.210Z,54.14
2023-04-23T15:49:46.173Z,55.33
2023-04-23T15:51:49.686Z,55.10
2023-04-23T15:53:53.369Z,55.12
2023-04-23T15:55:57.539Z,55.90
2023-04-23T15:58:03.742Z,56.00
2023-04-23T16:00:09.343Z,55.89
2023-04-23T16:02:15.766Z,56.15
2023-04-23T16:04:19.417Z,56.90
2023-04-23T16:06:23.178Z,56.59
2023-04-23T16:08:26.587Z,56.26
2023-04-23T16:10:31.542Z,56.53
2023-04-23T16:12:35.275Z,56.02
2023-04-23T16:14:40.473Z,55.85
2023-04-23T16:16:44.078Z,55.66
2023-04-23T16:18:47.511Z,55.44
2023-04-23T16:20:50.952Z,54.85
2023-04-23T16:22:54.315Z,53.95
2023-04-23T16:24:57.753Z,52.40
2023-04-23T16:27:02.429Z,52.31
2023-04-23T16:31:16.572Z,51.41
2023-04-23T16:33:20.120Z,50.91
2023-04-23T16:35:23.672Z,50.97
2023-04-23T16:37:27.168Z,50.36
2023-04-23T16:39:30.573Z,50.70
2023-04-23T16:41:34.008Z,51.17
2023-04-23T16:43:37.439Z,51.44
2023-04-23T16:45:41.355Z,51.69
2023-04-23T16:47:46.234Z,52.45
2023-04-23T16:49:49.714Z,52.91
2023-04-23T16:51:54.523Z,53.56
2023-04-23T16:53:59.516Z,55.01
2023-04-23T16:56:03.104Z,56.42
2023-04-23T16:58:07.068Z,57.28
2023-04-23T17:00:12.534Z,58.09
2023-04-23T17:02:16.140Z,59.64
2023-04-23T17:04:21.137Z,60.25
2023-04-23T17:06:29.434Z,61.26
2023-04-23T17:08:32.899Z,61.75
2023-04-23T17:10:36.318Z,62.09
2023-04-23T17:12:39.742Z,62.51
2023-04-23T17:14:43.449Z,62.36
2023-04-23T17:16:47.254Z,62.92
2023-04-23T17:18:50.621Z,63.34
2023-04-23T17:20:55.723Z,63.60
2023-04-23T17:22:59.181Z,63.98
2023-04-23T17:25:02.696Z,64.83
2023-04-23T17:27:06.116Z,65.39
2023-04-23T17:29:09.554Z,66.29
2023-04-23T17:31:13.083Z,66.81
2023-04-23T17:33:16.896Z,67.20
2023-04-23T17:35:20.292Z,67.57
2023-04-23T17:37:25.044Z,68.14
2023-04-23T17:39:28.461Z,68.71
2023-04-23T17:41:31.921Z,69.21
2023-04-23T17:43:35.971Z,69.94
2023-04-23T17:45:39.422Z,70.38
2023-04-23T17:47:42.852Z,70.44
2023-04-23T17:49:46.295Z,70.93
2023-04-23T17:51:49.831Z,70.91
2023-04-23T17:53:54.644Z,71.04
2023-04-23T17:56:02.623Z,71.28
2023-04-23T17:58:06.644Z,71.93
2023-04-23T18:00:12.360Z,72.13
2023-04-23T18:02:16.434Z,71.98
2023-04-23T18:04:20.294Z,72.13
2023-04-23T18:06:23.928Z,72.41
2023-04-23T18:08:27.829Z,72.43
2023-04-23T18:10:32.690Z,73.15
2023-04-23T18:12:36.259Z,72.80
2023-04-23T18:14:39.746Z,73.37
2023-04-23T18:16:43.203Z,73.74
2023-04-23T18:18:46.807Z,73.76
2023-04-23T18:20:52.190Z,73.81
2023-04-23T18:22:55.765Z,73.87
2023-04-23T18:24:59.189Z,73.78
2023-04-23T18:27:04.284Z,74.03
2023-04-23T18:29:07.694Z,74.28
2023-04-23T18:31:11.216Z,74.55
2023-04-23T18:33:26.581Z,74.64
2023-04-23T18:35:30.096Z,74.98
2023-04-23T18:37:37.510Z,75.19
2023-04-23T18:39:41.705Z,75.31
2023-04-23T18:41:45.367Z,75.43
2023-04-23T18:43:50.744Z,75.54
2023-04-23T18:45:54.278Z,75.84
2023-04-23T18:48:00.407Z,75.75
2023-04-23T18:50:09.447Z,76.18
2023-04-23T18:52:12.906Z,76.48
2023-04-23T18:54:17.777Z,76.58
2023-04-23T18:56:21.262Z,76.95
2023-04-23T18:58:25.628Z,77.23
2023-04-23T19:00:30.751Z,77.55
2023-04-23T19:02:35.998Z,77.72
2023-04-23T19:04:39.807Z,77.92
2023-04-23T19:06:43.450Z,78.25
2023-04-23T19:08:46.968Z,78.25
2023-04-23T19:10:50.417Z,78.48
2023-04-23T19:12:54.616Z,78.67
2023-04-23T19:14:58.014Z,78.80
2023-04-23T19:17:02.895Z,78.98
2023-04-23T19:19:06.366Z,79.24
2023-04-23T19:21:09.820Z,79.37
2023-04-23T19:23:13.310Z,79.62
2023-04-23T19:25:16.859Z,79.68
2023-04-23T19:27:22.493Z,79.79
2023-04-23T19:29:25.956Z,79.96
2023-04-23T19:31:30.322Z,80.00
2023-04-23T19:33:36.011Z,80.12
2023-04-23T19:35:40.427Z,80.13
2023-04-23T19:37:44.011Z,80.13
2023-04-23T19:39:47.410Z,80.17
2023-04-23T19:41:51.063Z,80.13
2023-04-23T19:43:54.513Z,80.25
2023-04-23T19:45:57.885Z,80.14
2023-04-23T19:48:04.536Z,80.16
2023-04-23T19:50:11.092Z,80.28
2023-04-23T19:52:23.180Z,80.57
2023-04-23T19:54:27.530Z,80.73
2023-04-23T19:56:30.931Z,80.67
2023-04-23T19:58:34.354Z,80.62
2023-04-23T20:00:41.393Z,80.75
2023-04-23T20:02:45.236Z,80.73
2023-04-23T20:04:48.729Z,80.83
2023-04-23T20:06:53.513Z,80.91
2023-04-23T20:09:07.885Z,81.01
2023-04-23T20:11:11.611Z,81.04
2023-04-23T20:13:15.287Z,81.23
2023-04-23T20:15:21.657Z,81.06
2023-04-23T20:17:26.709Z,81.14
2023-04-23T20:19:31.437Z,81.19
2023-04-23T20:21:35.061Z,81.18
2023-04-23T20:23:40.095Z,81.25
2023-04-23T20:25:43.608Z,81.36
2023-04-23T20:27:47.020Z,81.41
2023-04-23T20:29:50.492Z,81.41
2023-04-23T20:31:54.519Z,81.43
2023-04-23T20:33:58.529Z,81.63
2023-04-23T20:36:02.276Z,81.54
2023-04-23T20:38:06.028Z,81.58
2023-04-23T20:40:14.568Z,81.39
2023-04-23T20:42:18.337Z,81.58
2023-04-23T20:44:22.893Z,81.43
2023-04-23T20:46:30.271Z,81.27
2023-04-23T20:48:34.335Z,81.12
2023-04-23T20:50:38.078Z,81.02
2023-04-23T20:52:42.001Z,80.82
2023-04-23T20:54:46.883Z,80.80
2023-04-23T20:56:54.423Z,80.69
2023-04-23T20:58:58.887Z,80.47
2023-04-23T21:01:04.919Z,80.47
2023-04-23T21:03:09.000Z,80.60
2023-04-23T21:05:13.161Z,80.47
2023-04-23T21:07:16.862Z,80.20
2023-04-23T21:09:20.649Z,80.22
2023-04-23T21:11:26.376Z,80.23
2023-04-23T21:13:31.689Z,80.21
2023-04-23T21:15:35.928Z,79.91
2023-04-23T21:17:39.579Z,79.72
2023-04-23T21:19:43.449Z,79.51
2023-04-23T21:21:47.356Z,79.48
2023-04-23T21:23:51.041Z,79.35
2023-04-23T21:25:54.576Z,79.08
2023-04-23T21:27:58.450Z,78.98
2023-04-23T21:30:09.900Z,78.97
2023-04-23T21:32:13.209Z,78.86
2023-04-23T21:34:16.926Z,78.92
2023-04-23T21:36:20.471Z,78.73
2023-04-23T21:38:24.065Z,78.61
2023-04-23T21:40:27.686Z,78.71
2023-04-23T21:42:31.779Z,78.61
2023-04-23T21:44:37.747Z,78.90
2023-04-23T21:46:43.474Z,78.58
2023-04-23T21:48:50.503Z,78.32
2023-04-23T21:50:55.401Z,77.91
2023-04-23T21:52:59.613Z,77.53
2023-04-23T21:55:04.571Z,77.60
2023-04-23T21:57:08.172Z,77.67
2023-04-23T21:59:11.672Z,77.94
2023-04-23T22:01:15.137Z,78.27
2023-04-23T22:03:28.652Z,78.28
2023-04-23T22:05:41.724Z,78.33
2023-04-23T22:07:45.175Z,78.34
2023-04-23T22:09:48.626Z,78.46
2023-04-23T22:12:01.531Z,78.58
2023-04-23T22:14:06.432Z,78.54
2023-04-23T22:16:24.484Z,78.15
2023-04-23T22:18:32.472Z,77.96
2023-04-23T22:20:37.636Z,78.06
2023-04-23T22:22:43.080Z,78.27
2023-04-23T22:24:46.566Z,78.40
2023-04-23T22:26:50.104Z,78.10
2023-04-23T22:28:53.472Z,77.77
2023-04-23T22:30:56.842Z,77.59
2023-04-23T22:33:00.254Z,77.66
2023-04-23T22:35:05.371Z,77.78
2023-04-23T22:37:08.905Z,77.87
2023-04-23T22:39:12.981Z,78.01
2023-04-23T22:41:16.562Z,78.17
2023-04-23T22:43:19.956Z,78.19
2023-04-23T22:45:23.353Z,78.60
2023-04-23T22:47:27.170Z,78.74
2023-04-23T22:49:30.791Z,79.17
2023-04-23T22:51:36.095Z,79.58
2023-04-23T22:53:39.502Z,79.89
2023-04-23T22:55:42.921Z,80.11
2023-04-23T22:57:46.308Z,80.48
2023-04-23T22:59:49.903Z,80.53
2023-04-23T23:01:53.319Z,80.73
2023-04-23T23:03:56.778Z,80.87
2023-04-23T23:06:00.267Z,81.00
2023-04-23T23:08:05.053Z,81.09
2023-04-23T23:10:09.639Z,81.22
2023-04-23T23:12:13.078Z,81.13
2023-04-23T23:14:16.971Z,81.20
2023-04-23T23:16:20.479Z,80.98
2023-04-23T23:18:23.946Z,81.18
2023-04-23T23:20:27.658Z,81.16
2023-04-23T23:22:31.168Z,81.13
2023-04-23T23:24:36.043Z,80.95
2023-04-23T23:26:39.393Z,80.99
2023-04-23T23:28:43.138Z,81.02
2023-04-23T23:30:46.641Z,81.03
2023-04-23T23:32:50.248Z,81.05
2023-04-23T23:34:53.658Z,81.00
2023-04-23T23:36:57.070Z,81.16
2023-04-23T23:39:21.225Z,80.99
2023-04-23T23:41:27.612Z,81.01
2023-04-23T23:43:31.032Z,81.33
2023-04-23T23:45:34.563Z,81.32
2023-04-23T23:47:38.174Z,81.38
2023-04-23T23:49:41.967Z,81.26
2023-04-23T23:51:45.690Z,81.31
2023-04-23T23:53:49.094Z,81.29
2023-04-23T23:55:52.567Z,81.34
2023-04-23T23:57:57.471Z,81.51
